createdAt,value
2018-07-13T00:00:47.631Z,17.35
2018-07-13T00:01:47.608Z,17.30
2018-07-13T00:02:47.561Z,17.35
2018-07-13T00:03:47.545Z,17.28
2018-07-13T00:04:47.517Z,17.25
2018-07-13T00:05:47.500Z,17.30
2018-07-13T00:06:47.471Z,17.17
2018-07-13T00:07:47.475Z,17.21
2018-07-13T00:08:47.419Z,17.18
2018-07-13T00:09:47.404Z,17.17
2018-07-13T00:10:47.400Z,17.17
2018-07-13T00:11:47.356Z,17.10
2018-07-13T00:12:47.333Z,17.17
2018-07-13T00:13:47.312Z,17.09
2018-07-13T00:14:47.283Z,17.10
2018-07-13T00:15:47.267Z,17.06
2018-07-13T00:16:47.250Z,17.15
2018-07-13T00:17:47.218Z,17.03
2018-07-13T00:18:47.199Z,16.95
2018-07-13T00:19:47.216Z,16.91
2018-07-13T00:20:47.182Z,16.92
2018-07-13T00:21:47.225Z,16.99
2018-07-13T00:22:47.119Z,16.85
2018-07-13T00:24:38.028Z,16.92
2018-07-13T00:25:38.040Z,16.73
2018-07-13T00:26:37.946Z,16.91
2018-07-13T00:27:37.949Z,16.78
2018-07-13T00:28:37.917Z,16.77
2018-07-13T00:29:37.952Z,16.80
2018-07-13T00:30:37.851Z,16.81
2018-07-13T00:31:38.896Z,16.75
2018-07-13T00:32:37.800Z,16.72
2018-07-13T00:33:37.876Z,16.75
2018-07-13T00:34:37.756Z,16.70
2018-07-13T00:35:37.791Z,16.73
2018-07-13T00:36:37.709Z,16.62
2018-07-13T00:37:37.705Z,16.65
2018-07-13T00:38:37.666Z,16.80
2018-07-13T00:39:37.648Z,16.57
2018-07-13T00:40:37.617Z,16.72
2018-07-13T00:41:37.596Z,16.63
2018-07-13T00:42:37.568Z,16.77
2018-07-13T00:43:37.558Z,16.66
2018-07-13T00:44:37.536Z,16.66
2018-07-13T00:45:37.507Z,16.78
2018-07-13T00:46:37.503Z,16.65
2018-07-13T00:47:37.459Z,16.65
2018-07-13T00:48:37.445Z,16.66
2018-07-13T00:49:37.409Z,16.62
2018-07-13T00:50:37.386Z,16.63
2018-07-13T00:51:37.362Z,16.67
2018-07-13T00:52:37.341Z,16.54
2018-07-13T00:53:37.327Z,16.52
2018-07-13T00:54:37.305Z,16.55
2018-07-13T00:55:37.276Z,16.57
2018-07-13T00:56:37.268Z,16.51
2018-07-13T00:57:37.227Z,16.50
2018-07-13T00:58:37.192Z,16.47
2018-07-13T00:59:37.174Z,16.48
2018-07-13T01:00:37.177Z,16.48
2018-07-13T01:01:37.136Z,16.41
2018-07-13T01:02:37.104Z,16.45
2018-07-13T01:03:38.085Z,16.40
2018-07-13T01:04:37.058Z,16.40
2018-07-13T01:05:37.036Z,16.37
2018-07-13T01:06:37.011Z,16.40
2018-07-13T01:07:36.989Z,16.26
2018-07-13T01:08:36.962Z,16.37
2018-07-13T01:09:36.946Z,16.30
2018-07-13T01:10:36.916Z,16.34
2018-07-13T01:11:36.955Z,16.40
2018-07-13T01:12:36.875Z,16.29
2018-07-13T01:13:38.859Z,16.30
2018-07-13T01:14:36.820Z,16.27
2018-07-13T01:15:37.808Z,16.25
2018-07-13T01:16:36.781Z,16.29
2018-07-13T01:17:36.771Z,16.29
2018-07-13T01:18:36.740Z,16.18
2018-07-13T01:19:36.715Z,16.29
2018-07-13T01:20:36.691Z,16.17
2018-07-13T01:21:37.665Z,16.26
2018-07-13T01:22:36.642Z,16.22
2018-07-13T01:23:36.617Z,16.25
2018-07-13T01:24:36.588Z,16.18
2018-07-13T01:25:36.565Z,16.17
2018-07-13T01:26:36.538Z,16.23
2018-07-13T01:27:36.518Z,16.16
2018-07-13T01:28:36.495Z,16.18
2018-07-13T01:29:36.472Z,16.11
2018-07-13T01:30:36.449Z,16.13
2018-07-13T01:31:36.434Z,16.08
2018-07-13T01:32:36.397Z,16.03
2018-07-13T01:33:36.394Z,16.04
2018-07-13T01:34:36.355Z,16.07
2018-07-13T01:35:36.334Z,16.10
2018-07-13T01:36:36.306Z,16.06
2018-07-13T01:37:36.296Z,16.01
2018-07-13T01:38:36.254Z,15.89
2018-07-13T01:39:36.246Z,16.01
2018-07-13T01:40:36.229Z,15.96
2018-07-13T01:41:36.192Z,15.96
2018-07-13T01:42:36.159Z,15.96
2018-07-13T01:43:36.158Z,15.91
2018-07-13T01:44:36.117Z,15.95
2018-07-13T01:45:36.199Z,15.92
2018-07-13T01:46:36.064Z,15.92
2018-07-13T01:47:37.131Z,15.91
2018-07-13T01:48:36.016Z,15.88
2018-07-13T01:49:36.018Z,15.78
2018-07-13T01:50:35.973Z,15.77
2018-07-13T01:51:37.055Z,15.77
2018-07-13T01:52:35.930Z,15.78
2018-07-13T01:53:35.941Z,15.76
2018-07-13T01:54:35.879Z,15.80
2018-07-13T01:55:35.971Z,15.70
2018-07-13T01:56:35.820Z,15.66
2018-07-13T01:57:35.864Z,15.74
2018-07-13T01:58:35.777Z,15.68
2018-07-13T01:59:36.801Z,15.70
2018-07-13T02:00:35.727Z,15.71
2018-07-13T02:01:35.791Z,15.64
2018-07-13T02:02:35.699Z,15.59
2018-07-13T02:03:36.725Z,15.59
2018-07-13T02:04:35.638Z,15.74
2018-07-13T02:05:35.618Z,15.55
2018-07-13T02:06:35.586Z,15.55
2018-07-13T02:07:35.566Z,15.62
2018-07-13T02:08:35.541Z,15.62
2018-07-13T02:09:35.521Z,15.56
2018-07-13T02:10:35.530Z,15.52
2018-07-13T02:11:36.480Z,15.51
2018-07-13T02:12:35.449Z,15.51
2018-07-13T02:13:35.442Z,15.44
2018-07-13T02:14:35.404Z,15.52
2018-07-13T02:15:35.386Z,15.43
2018-07-13T02:16:35.357Z,15.46
2018-07-13T02:17:35.331Z,15.49
2018-07-13T02:18:35.305Z,15.46
2018-07-13T02:19:35.295Z,15.28
2018-07-13T02:20:35.258Z,15.33
2018-07-13T02:21:35.246Z,15.37
2018-07-13T02:22:35.213Z,15.31
2018-07-13T02:23:37.196Z,15.30
2018-07-13T02:24:35.158Z,15.35
2018-07-13T02:25:36.142Z,15.30
2018-07-13T02:26:35.115Z,15.30
2018-07-13T02:27:35.098Z,15.20
2018-07-13T02:28:35.067Z,15.30
2018-07-13T02:29:35.052Z,15.30
2018-07-13T02:30:35.016Z,15.30
2018-07-13T02:31:36.012Z,15.30
2018-07-13T02:32:34.973Z,15.23
2018-07-13T02:33:34.953Z,15.18
2018-07-13T02:34:34.928Z,15.22
2018-07-13T02:35:34.912Z,15.28
2018-07-13T02:36:34.871Z,15.25
2018-07-13T02:37:34.853Z,15.22
2018-07-13T02:38:34.832Z,15.20
2018-07-13T02:39:34.815Z,15.23
2018-07-13T02:40:34.781Z,15.18
2018-07-13T02:41:34.759Z,15.25
2018-07-13T02:42:34.736Z,15.23
2018-07-13T02:43:34.712Z,15.20
2018-07-13T02:44:34.681Z,15.18
2018-07-13T02:45:34.678Z,15.28
2018-07-13T02:46:34.631Z,15.15
2018-07-13T02:47:34.627Z,15.22
2018-07-13T02:48:34.591Z,15.28
2018-07-13T02:49:34.570Z,15.20
2018-07-13T02:50:34.559Z,15.12
2018-07-13T02:51:34.522Z,15.30
2018-07-13T02:52:34.496Z,15.20
2018-07-13T02:53:34.473Z,15.22
2018-07-13T02:54:34.453Z,15.09
2018-07-13T02:55:34.427Z,15.18
2018-07-13T02:56:34.396Z,15.13
2018-07-13T02:57:34.379Z,15.16
2018-07-13T02:58:34.355Z,15.07
2018-07-13T02:59:34.329Z,15.13
2018-07-13T03:00:34.303Z,15.16
2018-07-13T03:01:34.290Z,15.11
2018-07-13T03:02:34.261Z,15.19
2018-07-13T03:03:34.236Z,15.23
2018-07-13T03:04:34.210Z,15.25
2018-07-13T03:05:34.187Z,15.30
2018-07-13T03:06:34.157Z,15.22
2018-07-13T03:07:34.140Z,15.20
2018-07-13T03:08:34.116Z,15.28
2018-07-13T03:09:34.096Z,15.25
2018-07-13T03:10:34.064Z,15.30
2018-07-13T03:11:34.050Z,15.31
2018-07-13T03:12:34.021Z,15.30
2018-07-13T03:13:33.992Z,15.31
2018-07-13T03:14:33.966Z,15.34
2018-07-13T03:15:33.951Z,15.37
2018-07-13T03:16:33.916Z,15.38
2018-07-13T03:17:33.898Z,15.43
2018-07-13T03:18:33.871Z,15.41
2018-07-13T03:19:33.850Z,15.43
2018-07-13T03:20:33.835Z,15.43
2018-07-13T03:21:34.811Z,15.51
2018-07-13T03:22:33.783Z,15.59
2018-07-13T03:23:33.858Z,15.53
2018-07-13T03:24:33.732Z,15.55
2018-07-13T03:25:33.770Z,15.55
2018-07-13T03:26:33.676Z,15.60
2018-07-13T03:27:34.810Z,15.58
2018-07-13T03:28:33.648Z,15.62
2018-07-13T03:29:33.614Z,15.67
2018-07-13T03:30:33.584Z,15.64
2018-07-13T03:31:33.612Z,15.51
2018-07-13T03:32:33.535Z,15.67
2018-07-13T03:33:33.619Z,15.59
2018-07-13T03:34:33.492Z,15.66
2018-07-13T03:35:33.528Z,15.73
2018-07-13T03:36:33.442Z,15.60
2018-07-13T03:37:33.450Z,15.62
2018-07-13T03:38:33.404Z,15.67
2018-07-13T03:39:33.456Z,15.70
2018-07-13T03:40:33.350Z,15.78
2018-07-13T03:41:33.359Z,15.71
2018-07-13T03:42:33.304Z,15.66
2018-07-13T03:43:33.276Z,15.64
2018-07-13T03:44:33.265Z,15.74
2018-07-13T03:45:33.246Z,15.73
2018-07-13T03:46:33.203Z,15.80
2018-07-13T03:47:33.195Z,15.67
2018-07-13T03:48:33.180Z,15.70
2018-07-13T03:49:33.132Z,15.74
2018-07-13T03:50:33.118Z,15.76
2018-07-13T03:51:33.097Z,15.76
2018-07-13T03:52:33.083Z,15.81
2018-07-13T03:53:33.042Z,15.77
2018-07-13T03:54:33.016Z,15.73
2018-07-13T03:55:32.988Z,15.67
2018-07-13T03:56:32.974Z,15.64
2018-07-13T03:57:32.943Z,15.59
2018-07-13T03:58:32.938Z,15.62
2018-07-13T03:59:32.891Z,15.68
2018-07-13T04:00:32.971Z,15.71
2018-07-13T04:01:32.842Z,15.73
2018-07-13T04:02:32.810Z,15.73
2018-07-13T04:03:32.800Z,15.70
2018-07-13T04:04:32.770Z,15.77
2018-07-13T04:05:32.762Z,15.78
2018-07-13T04:06:32.783Z,15.76
2018-07-13T04:07:32.719Z,15.77
2018-07-13T04:08:32.684Z,15.77
2018-07-13T04:09:32.658Z,15.70
2018-07-13T04:10:32.629Z,15.81
2018-07-13T04:11:32.608Z,15.91
2018-07-13T04:12:32.584Z,15.92
2018-07-13T04:13:32.553Z,15.76
2018-07-13T04:14:32.542Z,15.84
2018-07-13T04:15:32.505Z,15.84
2018-07-13T04:16:32.473Z,15.85
2018-07-13T04:17:32.460Z,15.86
2018-07-13T04:18:32.431Z,15.88
2018-07-13T04:19:32.416Z,15.76
2018-07-13T04:20:32.387Z,15.86
2018-07-13T04:21:32.374Z,15.80
2018-07-13T04:22:32.339Z,15.91
2018-07-13T04:23:32.313Z,15.92
2018-07-13T04:24:32.288Z,15.85
2018-07-13T04:25:32.285Z,15.88
2018-07-13T04:26:32.245Z,15.92
2018-07-13T04:27:32.225Z,15.86
2018-07-13T04:28:32.191Z,15.89
2018-07-13T04:29:32.184Z,15.96
2018-07-13T04:30:32.143Z,15.92
2018-07-13T04:31:32.132Z,15.91
2018-07-13T04:32:32.090Z,15.92
2018-07-13T04:33:32.075Z,15.91
2018-07-13T04:34:32.041Z,15.91
2018-07-13T04:36:18.226Z,15.91
2018-07-13T04:37:18.169Z,15.89
2018-07-13T04:38:18.143Z,15.96
2018-07-13T04:39:18.124Z,15.92
2018-07-13T04:40:18.107Z,15.99
2018-07-13T04:41:18.087Z,15.98
2018-07-13T04:42:18.060Z,16.06
2018-07-13T04:43:18.032Z,15.96
2018-07-13T04:44:18.004Z,16.04
2018-07-13T04:45:17.990Z,16.04
2018-07-13T04:46:17.957Z,16.08
2018-07-13T04:47:17.936Z,16.14
2018-07-13T04:48:17.902Z,16.11
2018-07-13T04:49:17.897Z,16.06
2018-07-13T04:50:17.915Z,16.03
2018-07-13T04:51:17.832Z,15.92
2018-07-13T04:52:17.809Z,15.86
2018-07-13T04:53:17.799Z,15.92
2018-07-13T04:54:17.765Z,15.91
2018-07-13T04:55:17.739Z,16.03
2018-07-13T04:56:17.719Z,16.03
2018-07-13T04:57:17.703Z,16.03
2018-07-13T04:58:17.669Z,15.98
2018-07-13T04:59:17.661Z,16.16
2018-07-13T05:00:17.623Z,16.13
2018-07-13T05:01:17.604Z,16.13
2018-07-13T05:02:17.574Z,16.18
2018-07-13T05:03:17.552Z,16.16
2018-07-13T05:04:17.524Z,16.17
2018-07-13T05:05:17.511Z,16.23
2018-07-13T05:06:17.546Z,16.18
2018-07-13T05:07:17.480Z,16.30
2018-07-13T05:08:17.438Z,16.34
2018-07-13T05:09:17.422Z,16.34
2018-07-13T05:10:17.396Z,16.37
2018-07-13T05:11:17.371Z,16.33
2018-07-13T05:12:17.332Z,16.36
2018-07-13T05:13:17.324Z,16.36
2018-07-13T05:14:17.317Z,16.33
2018-07-13T05:15:17.286Z,16.36
2018-07-13T05:16:17.251Z,16.33
2018-07-13T05:17:17.228Z,16.33
2018-07-13T05:18:17.199Z,16.33
2018-07-13T05:19:17.186Z,16.34
2018-07-13T05:20:17.154Z,16.30
2018-07-13T05:21:17.145Z,16.25
2018-07-13T05:22:17.103Z,16.33
2018-07-13T05:23:17.080Z,16.26
2018-07-13T05:24:17.049Z,16.33
2018-07-13T05:25:17.031Z,16.26
2018-07-13T05:26:17.002Z,16.29
2018-07-13T05:27:17.982Z,16.32
2018-07-13T05:28:16.950Z,16.44
2018-07-13T05:29:16.944Z,16.32
2018-07-13T05:30:16.907Z,16.37
2018-07-13T05:31:16.884Z,16.42
2018-07-13T05:32:16.892Z,16.47
2018-07-13T05:33:16.849Z,16.47
2018-07-13T05:34:16.813Z,16.45
2018-07-13T05:35:16.791Z,16.29
2018-07-13T05:36:16.766Z,16.37
2018-07-13T05:37:16.747Z,16.37
2018-07-13T05:38:16.775Z,16.25
2018-07-13T05:39:16.695Z,16.22
2018-07-13T05:40:16.670Z,16.16
2018-07-13T05:41:16.638Z,16.17
2018-07-13T05:42:16.621Z,16.27
2018-07-13T05:43:16.643Z,16.34
2018-07-13T05:44:16.606Z,16.29
2018-07-13T05:45:16.656Z,16.32
2018-07-13T05:46:16.519Z,16.32
2018-07-13T05:47:16.569Z,16.44
2018-07-13T05:48:16.470Z,16.34
2018-07-13T05:49:17.499Z,16.54
2018-07-13T05:50:16.439Z,16.63
2018-07-13T05:51:16.505Z,16.65
2018-07-13T05:52:16.393Z,16.75
2018-07-13T05:53:16.415Z,16.72
2018-07-13T05:54:16.327Z,16.67
2018-07-13T05:55:16.407Z,16.73
2018-07-13T05:56:16.282Z,16.65
2018-07-13T05:57:16.337Z,16.75
2018-07-13T05:58:16.237Z,16.60
2018-07-13T05:59:16.241Z,16.65
2018-07-13T06:00:16.185Z,16.55
2018-07-13T06:01:16.253Z,16.62
2018-07-13T06:02:16.146Z,16.62
2018-07-13T06:03:16.165Z,16.69
2018-07-13T06:04:16.086Z,16.72
2018-07-13T06:05:16.175Z,16.77
2018-07-13T06:06:16.041Z,16.90
2018-07-13T06:07:16.104Z,16.72
2018-07-13T06:08:15.996Z,16.95
2018-07-13T06:10:02.280Z,16.85
2018-07-13T06:11:02.298Z,16.88
2018-07-13T06:12:02.449Z,16.92
2018-07-13T06:13:02.200Z,16.81
2018-07-13T06:14:02.188Z,16.99
2018-07-13T06:15:02.225Z,17.00
2018-07-13T06:16:02.096Z,17.07
2018-07-13T06:17:02.124Z,17.00
2018-07-13T06:18:02.103Z,16.95
2018-07-13T06:19:02.238Z,17.02
2018-07-13T06:20:02.046Z,17.12
2018-07-13T06:21:02.052Z,17.09
2018-07-13T06:22:01.978Z,17.09
2018-07-13T06:23:01.963Z,17.05
2018-07-13T06:24:01.908Z,17.12
2018-07-13T06:25:01.989Z,17.21
2018-07-13T06:26:01.861Z,17.12
2018-07-13T06:27:01.894Z,17.07
2018-07-13T06:28:01.817Z,17.10
2018-07-13T06:29:01.894Z,17.17
2018-07-13T06:30:01.911Z,17.09
2018-07-13T06:31:01.849Z,17.12
2018-07-13T06:32:01.723Z,17.17
2018-07-13T06:33:02.744Z,17.33
2018-07-13T06:34:01.663Z,17.21
2018-07-13T06:35:01.719Z,17.27
2018-07-13T06:36:01.624Z,17.24
2018-07-13T06:37:01.647Z,17.30
2018-07-13T06:38:01.576Z,17.20
2018-07-13T06:39:01.650Z,17.20
2018-07-13T06:40:01.531Z,17.22
2018-07-13T06:41:01.575Z,17.20
2018-07-13T06:42:01.480Z,17.09
2018-07-13T06:43:01.589Z,17.05
2018-07-13T06:44:01.431Z,17.07
2018-07-13T06:45:01.421Z,17.20
2018-07-13T06:46:01.392Z,17.07
2018-07-13T06:47:01.365Z,17.12
2018-07-13T06:48:01.434Z,17.20
2018-07-13T06:49:47.522Z,17.42
2018-07-13T06:50:47.527Z,17.42
2018-07-13T06:52:40.885Z,17.51
2018-07-13T06:53:40.837Z,17.57
2018-07-13T06:54:40.812Z,17.62
2018-07-13T06:55:40.785Z,17.80
2018-07-13T06:56:40.767Z,17.79
2018-07-13T06:57:40.767Z,17.95
2018-07-13T06:58:40.718Z,17.94
2018-07-13T06:59:40.803Z,18.01
2018-07-13T07:00:40.667Z,17.95
2018-07-13T07:01:40.703Z,17.94
2018-07-13T07:02:40.652Z,17.77
2018-07-13T07:03:40.609Z,17.73
2018-07-13T07:04:40.575Z,17.92
2018-07-13T07:05:40.616Z,17.92
2018-07-13T07:06:40.515Z,17.80
2018-07-13T07:07:40.611Z,17.71
2018-07-13T07:08:40.471Z,17.71
2018-07-13T07:09:40.542Z,17.70
2018-07-13T07:10:40.425Z,17.65
2018-07-13T07:11:40.800Z,17.60
2018-07-13T07:12:40.373Z,17.51
2018-07-13T07:13:40.556Z,17.70
2018-07-13T07:14:40.415Z,17.70
2018-07-13T07:15:40.309Z,17.80
2018-07-13T07:16:40.385Z,17.89
2018-07-13T07:17:40.265Z,17.95
2018-07-13T07:18:40.383Z,18.10
2018-07-13T07:19:40.208Z,18.07
2018-07-13T07:20:40.204Z,18.19
2018-07-13T07:21:40.169Z,18.28
2018-07-13T07:22:40.223Z,18.20
2018-07-13T07:23:40.099Z,18.20
2018-07-13T07:24:40.123Z,18.26
2018-07-13T07:25:40.067Z,18.21
2018-07-13T07:26:40.149Z,18.16
2018-07-13T07:27:40.020Z,18.11
2018-07-13T07:28:40.055Z,18.02
2018-07-13T07:29:39.950Z,18.01
2018-07-13T07:30:41.030Z,18.04
2018-07-13T07:31:39.981Z,17.94
2018-07-13T07:32:39.980Z,17.89
2018-07-13T07:33:39.858Z,17.96
2018-07-13T07:34:39.927Z,18.02
2018-07-13T07:35:39.816Z,17.99
2018-07-13T07:36:39.897Z,18.14
2018-07-13T07:37:39.784Z,18.10
2018-07-13T07:38:39.811Z,18.10
2018-07-13T07:39:39.721Z,18.13
2018-07-13T07:40:39.738Z,18.10
2018-07-13T07:41:39.678Z,18.09
2018-07-13T07:42:39.731Z,17.95
2018-07-13T07:43:39.611Z,18.05
2018-07-13T07:44:39.651Z,17.99
2018-07-13T07:45:39.581Z,18.02
2018-07-13T07:46:39.678Z,18.16
2018-07-13T07:47:39.549Z,18.16
2018-07-13T07:48:39.563Z,18.26
2018-07-13T07:49:39.463Z,18.38
2018-07-13T07:50:39.471Z,18.42
2018-07-13T07:51:39.424Z,18.41
2018-07-13T07:52:40.410Z,18.49
2018-07-13T07:53:39.382Z,18.44
2018-07-13T07:54:39.403Z,18.34
2018-07-13T07:55:39.326Z,18.47
2018-07-13T07:56:39.311Z,18.47
2018-07-13T07:57:39.337Z,18.50
2018-07-13T07:58:39.336Z,18.35
2018-07-13T07:59:39.229Z,18.26
2018-07-13T08:00:39.234Z,18.28
2018-07-13T08:01:39.181Z,18.25
2018-07-13T08:02:39.247Z,18.21
2018-07-13T08:03:39.745Z,18.28
2018-07-13T08:04:39.167Z,18.29
2018-07-13T08:05:39.082Z,18.29
2018-07-13T08:06:39.292Z,18.39
2018-07-13T08:07:39.041Z,18.28
2018-07-13T08:08:39.098Z,18.20
2018-07-13T08:09:38.979Z,18.23
2018-07-13T08:10:38.997Z,18.25
2018-07-13T08:11:38.940Z,18.23
2018-07-13T08:12:39.015Z,18.35
2018-07-13T08:13:38.956Z,18.26
2018-07-13T08:14:39.017Z,18.19
2018-07-13T08:15:38.842Z,18.10
2018-07-13T08:16:38.840Z,18.19
2018-07-13T08:17:38.796Z,18.20
2018-07-13T08:18:38.838Z,18.17
2018-07-13T08:19:38.731Z,18.26
2018-07-13T08:20:38.752Z,18.16
2018-07-13T08:21:38.691Z,18.32
2018-07-13T08:22:38.766Z,18.21
2018-07-13T08:23:38.631Z,18.35
2018-07-13T08:24:39.702Z,18.21
2018-07-13T08:25:38.591Z,18.21
2018-07-13T08:26:38.612Z,18.23
2018-07-13T08:27:38.543Z,18.28
2018-07-13T08:28:38.600Z,18.32
2018-07-13T08:29:38.493Z,18.34
2018-07-13T08:30:38.520Z,18.34
2018-07-13T08:31:38.449Z,18.29
2018-07-13T08:32:38.538Z,18.42
2018-07-13T08:33:38.386Z,18.50
2018-07-13T08:34:38.429Z,18.68
2018-07-13T08:35:38.347Z,18.74
2018-07-13T08:36:38.343Z,18.68
2018-07-13T08:37:38.331Z,18.74
2018-07-13T08:38:38.352Z,18.71
2018-07-13T08:39:38.263Z,18.74
2018-07-13T08:40:38.344Z,18.69
2018-07-13T08:41:38.201Z,18.68
2018-07-13T08:42:38.276Z,18.72
2018-07-13T08:43:38.146Z,18.83
2018-07-13T08:44:38.194Z,18.97
2018-07-13T08:45:38.157Z,18.97
2018-07-13T08:46:38.204Z,19.09
2018-07-13T08:47:38.070Z,19.21
2018-07-13T08:48:38.118Z,19.28
2018-07-13T08:49:38.008Z,19.28
2018-07-13T08:50:38.019Z,19.28
2018-07-13T08:51:38.021Z,19.34
2018-07-13T08:52:38.028Z,19.38
2018-07-13T08:53:37.911Z,19.45
2018-07-13T08:54:37.949Z,19.53
2018-07-13T08:55:37.872Z,19.50
2018-07-13T08:56:37.850Z,19.50
2018-07-13T08:57:37.812Z,19.60
2018-07-13T08:58:38.883Z,19.61
2018-07-13T08:59:37.769Z,19.62
2018-07-13T09:00:37.782Z,19.64
2018-07-13T09:01:37.763Z,19.65
2018-07-13T09:02:37.793Z,19.75
2018-07-13T09:03:37.674Z,19.83
2018-07-13T09:04:37.792Z,19.86
2018-07-13T09:05:37.656Z,19.92
2018-07-13T09:06:37.727Z,19.97
2018-07-13T09:07:37.672Z,20.01
2018-07-13T09:08:37.699Z,20.02
2018-07-13T09:09:37.523Z,20.01
2018-07-13T09:10:37.531Z,20.02
2018-07-13T09:11:37.485Z,19.90
2018-07-13T09:12:37.545Z,20.00
2018-07-13T09:13:37.443Z,20.04
2018-07-13T09:14:37.450Z,19.94
2018-07-13T09:15:37.396Z,20.12
2018-07-13T09:16:37.469Z,20.17
2018-07-13T09:17:37.338Z,20.19
2018-07-13T09:18:37.379Z,20.33
2018-07-13T09:19:37.290Z,20.35
2018-07-13T09:20:37.347Z,20.31
2018-07-13T09:21:37.263Z,20.31
2018-07-13T09:22:38.353Z,20.31
2018-07-13T09:23:37.242Z,20.31
2018-07-13T09:24:37.220Z,20.25
2018-07-13T09:25:37.148Z,20.33
2018-07-13T09:26:37.224Z,20.31
2018-07-13T09:27:37.094Z,20.31
2018-07-13T09:28:37.139Z,20.56
2018-07-13T09:30:23.087Z,20.66
2018-07-13T09:31:22.974Z,20.73
2018-07-13T09:32:22.943Z,20.85
2018-07-13T09:33:23.962Z,20.88
2018-07-13T09:34:22.891Z,21.03
2018-07-13T09:35:22.969Z,20.85
2018-07-13T09:36:22.850Z,20.96
2018-07-13T09:37:22.867Z,20.88
2018-07-13T09:38:22.843Z,20.85
2018-07-13T09:39:22.870Z,20.85
2018-07-13T09:40:22.750Z,20.83
2018-07-13T09:41:22.777Z,20.81
2018-07-13T09:42:22.728Z,20.96
2018-07-13T09:43:22.686Z,20.98
2018-07-13T09:44:22.655Z,21.13
2018-07-13T09:45:22.659Z,21.27
2018-07-13T09:46:22.611Z,21.27
2018-07-13T09:47:22.591Z,21.37
2018-07-13T09:48:22.561Z,21.52
2018-07-13T09:49:22.648Z,21.58
2018-07-13T09:50:22.523Z,21.70
2018-07-13T09:51:22.568Z,21.67
2018-07-13T09:52:22.469Z,21.74
2018-07-13T09:53:22.579Z,21.85
2018-07-13T09:54:22.416Z,21.99
2018-07-13T09:55:22.476Z,21.85
2018-07-13T09:56:22.369Z,22.08
2018-07-13T09:57:23.414Z,22.04
2018-07-13T09:58:22.341Z,22.12
2018-07-13T09:59:27.000Z,22.38
2018-07-13T10:00:22.287Z,22.36
2018-07-13T10:01:22.303Z,22.46
2018-07-13T10:02:22.244Z,22.56
2018-07-13T10:03:23.225Z,22.57
2018-07-13T10:04:22.184Z,22.49
2018-07-13T10:05:22.221Z,22.44
2018-07-13T10:06:22.161Z,22.35
2018-07-13T10:07:22.149Z,22.33
2018-07-13T10:08:22.093Z,22.30
2018-07-13T10:09:22.148Z,22.30
2018-07-13T10:10:22.055Z,22.36
2018-07-13T10:11:22.060Z,22.39
2018-07-13T10:12:22.006Z,22.60
2018-07-13T10:13:22.109Z,22.79
2018-07-13T10:14:21.945Z,22.91
2018-07-13T10:15:21.977Z,22.75
2018-07-13T10:16:21.896Z,22.70
2018-07-13T10:17:21.886Z,22.66
2018-07-13T10:18:21.859Z,22.74
2018-07-13T10:19:21.828Z,22.70
2018-07-13T10:20:21.811Z,22.78
2018-07-13T10:21:21.773Z,22.84
2018-07-13T10:22:21.753Z,22.76
2018-07-13T10:23:21.744Z,22.84
2018-07-13T10:24:21.718Z,22.88
2018-07-13T10:25:21.693Z,22.91
2018-07-13T10:26:21.663Z,22.84
2018-07-13T10:27:21.631Z,22.91
2018-07-13T10:28:21.617Z,22.85
2018-07-13T10:29:21.592Z,22.86
2018-07-13T10:30:21.587Z,23.00
2018-07-13T10:31:21.544Z,22.86
2018-07-13T10:32:21.556Z,22.99
2018-07-13T10:33:21.504Z,22.91
2018-07-13T10:34:21.478Z,22.94
2018-07-13T10:35:21.491Z,23.12
2018-07-13T10:36:21.432Z,23.25
2018-07-13T10:37:21.400Z,23.22
2018-07-13T10:38:21.387Z,23.37
2018-07-13T10:39:21.376Z,23.26
2018-07-13T10:40:21.348Z,23.39
2018-07-13T10:41:21.326Z,23.60
2018-07-13T10:42:21.302Z,23.53
2018-07-13T10:43:21.267Z,23.37
2018-07-13T10:44:21.260Z,23.49
2018-07-13T10:45:21.220Z,23.69
2018-07-13T10:46:21.273Z,23.59
2018-07-13T10:47:21.197Z,23.59
2018-07-13T10:48:21.181Z,23.47
2018-07-13T10:50:06.888Z,23.77
2018-07-13T10:51:06.816Z,24.11
2018-07-13T10:52:07.094Z,24.19
2018-07-13T10:53:06.766Z,24.44
2018-07-13T10:54:06.717Z,24.46
2018-07-13T10:55:06.776Z,24.31
2018-07-13T10:56:06.686Z,24.21
2018-07-13T10:57:06.746Z,24.14
2018-07-13T10:58:06.627Z,24.16
2018-07-13T10:59:06.696Z,24.05
2018-07-13T11:00:06.574Z,24.05
2018-07-13T11:01:12.362Z,24.11
2018-07-13T11:02:06.582Z,24.27
2018-07-13T11:03:08.574Z,24.23
2018-07-13T11:04:06.511Z,24.29
2018-07-13T11:05:06.543Z,24.08
2018-07-13T11:06:06.437Z,24.14
2018-07-13T11:07:06.408Z,23.92
2018-07-13T11:08:06.467Z,23.94
2018-07-13T11:09:06.370Z,24.08
2018-07-13T11:10:06.346Z,24.09
2018-07-13T11:11:06.364Z,24.23
2018-07-13T11:12:06.348Z,24.33
2018-07-13T11:13:52.143Z,24.79
2018-07-13T11:14:51.953Z,24.97
2018-07-13T11:15:51.914Z,25.27
2018-07-13T11:16:51.962Z,25.36
2018-07-13T11:17:51.852Z,25.27
2018-07-13T11:18:51.936Z,25.05
2018-07-13T11:19:51.816Z,25.04
2018-07-13T11:20:51.824Z,24.90
2018-07-13T11:21:51.784Z,24.94
2018-07-13T11:22:51.852Z,24.83
2018-07-13T11:23:51.714Z,24.75
2018-07-13T11:24:51.850Z,24.92
2018-07-13T11:25:51.678Z,24.83
2018-07-13T11:26:51.769Z,24.93
2018-07-13T11:27:51.634Z,24.97
2018-07-13T11:28:51.675Z,24.94
2018-07-13T11:29:51.721Z,24.94
2018-07-13T11:30:51.695Z,25.07
2018-07-13T11:31:51.536Z,24.94
2018-07-13T11:32:51.605Z,24.97
2018-07-13T11:33:51.503Z,24.98
2018-07-13T11:34:51.610Z,25.04
2018-07-13T11:35:51.446Z,25.39
2018-07-13T11:36:51.620Z,25.53
2018-07-13T11:37:51.411Z,25.57
2018-07-13T11:38:51.551Z,25.46
2018-07-13T11:39:51.361Z,25.44
2018-07-13T11:40:51.476Z,25.23
2018-07-13T11:41:51.332Z,25.16
2018-07-13T11:42:51.364Z,25.12
2018-07-13T11:43:51.295Z,24.98
2018-07-13T11:44:51.379Z,25.08
2018-07-13T11:45:51.223Z,25.05
2018-07-13T11:46:51.281Z,24.98
2018-07-13T11:47:51.178Z,24.97
2018-07-13T11:48:52.231Z,25.12
2018-07-13T11:49:51.131Z,25.12
2018-07-13T11:50:51.213Z,25.07
2018-07-13T11:51:51.090Z,24.92
2018-07-13T11:52:51.228Z,25.02
2018-07-13T11:53:51.105Z,25.05
2018-07-13T11:54:51.169Z,25.11
2018-07-13T11:55:50.999Z,25.07
2018-07-13T11:56:51.064Z,25.07
2018-07-13T11:57:50.980Z,25.05
2018-07-13T11:58:50.986Z,25.11
2018-07-13T11:59:51.064Z,25.16
2018-07-13T12:00:50.881Z,25.05
2018-07-13T12:01:50.885Z,25.07
2018-07-13T12:02:50.917Z,25.07
2018-07-13T12:03:50.831Z,25.05
2018-07-13T12:04:50.806Z,25.02
2018-07-13T12:05:50.789Z,25.16
2018-07-13T12:06:50.797Z,25.26
2018-07-13T12:07:50.791Z,25.35
2018-07-13T12:08:50.853Z,25.34
2018-07-13T12:09:50.731Z,25.39
2018-07-13T12:10:50.737Z,25.41
2018-07-13T12:11:50.669Z,25.39
2018-07-13T12:12:51.036Z,25.39
2018-07-13T12:13:50.615Z,25.41
2018-07-13T12:14:50.659Z,25.42
2018-07-13T12:15:50.547Z,25.45
2018-07-13T12:16:50.662Z,25.57
2018-07-13T12:17:50.611Z,25.64
2018-07-13T12:18:50.584Z,25.64
2018-07-13T12:19:50.544Z,25.59
2018-07-13T12:20:50.585Z,25.57
2018-07-13T12:21:50.417Z,25.59
2018-07-13T12:22:50.511Z,25.75
2018-07-13T12:24:36.500Z,25.69
2018-07-13T12:25:36.475Z,25.76
2018-07-13T12:26:36.379Z,25.76
2018-07-13T12:27:36.475Z,25.76
2018-07-13T12:28:36.340Z,25.67
2018-07-13T12:29:36.381Z,25.59
2018-07-13T12:30:36.292Z,25.59
2018-07-13T12:31:36.426Z,25.64
2018-07-13T12:32:36.390Z,25.83
2018-07-13T12:33:36.306Z,26.03
2018-07-13T12:34:36.191Z,26.06
2018-07-13T12:35:36.234Z,26.16
2018-07-13T12:36:36.149Z,25.96
2018-07-13T12:37:36.217Z,26.00
2018-07-13T12:38:36.123Z,25.91
2018-07-13T12:39:37.232Z,25.90
2018-07-13T12:40:36.079Z,25.90
2018-07-13T12:41:41.779Z,25.78
2018-07-13T12:42:36.030Z,25.89
2018-07-13T12:43:42.817Z,25.82
2018-07-13T12:44:35.979Z,25.69
2018-07-13T12:45:57.996Z,25.78
2018-07-13T12:46:35.937Z,25.76
2018-07-13T12:48:00.747Z,25.69
2018-07-13T12:48:35.885Z,25.59
2018-07-13T12:49:35.864Z,25.60
2018-07-13T12:50:46.731Z,25.85
2018-07-13T12:51:35.812Z,25.85
2018-07-13T12:52:40.731Z,25.96
2018-07-13T12:53:35.771Z,26.03
2018-07-13T12:54:48.727Z,26.12
2018-07-13T12:55:35.730Z,26.06
2018-07-13T12:56:41.767Z,25.90
2018-07-13T12:57:35.711Z,25.61
2018-07-13T13:19:57.419Z,26.57
2018-07-13T13:20:57.372Z,26.47